»·PEaware :: WZZ74 KMRY-KSAN

WZZ74 :: KMRY-KSAN

FLIGHT INFORMATION

Flight Status: Arrived
Operator:
Wizz Air
More flights by this operator :: More flights under this callsign
Pilot: Mounir D. (11581)
Aircraft: AIRBUS A320
(A320)
More flights by this aircraft type
Origin: KMRY Monterey Peninsula
United States
Destination: KSAN San Diego Intl-Lindbergh
United States
More flights between these airports :: More routes between these airports
Route: MRY4 SERFR MCKEY LAX COMIX2
File this flight plan on PilotEdge
Remarks:
Altitude:
(Current/Filed)
39,000ft
Speed:
(Current/Filed)
430kts
Departed: 05-Aug-18 12:40 PM
Arrived: 05-Aug-18 01:42 PM
Distance/Time
Traveled:
325nm/1:02
Distance/Time
To Go:
Arrived

Flight Plot

Page will automatically refresh every two minutes.

Flight plan parsing failed; only flown route is shown


Map Options




Map Legend


Flown Route
Filed Route
Departure Airport
Arrival Airport
Navaid (VOR, NDB)
Fix

Horizontal Profiles

Position Reports

Time Latitude Longitude Heading Altitude Ground
Speed
05-Aug-18 12:24 36.587283 -121.849845 205 217ft 0kts
05-Aug-18 12:25 36.587283 -121.849845 205 217ft 0kts
05-Aug-18 12:26 36.587283 -121.849845 205 217ft 0kts
05-Aug-18 12:27 36.587283 -121.849845 205 217ft 0kts
05-Aug-18 12:28 36.587283 -121.849845 205 217ft 0kts
05-Aug-18 12:29 36.587283 -121.849845 205 217ft 0kts
05-Aug-18 12:30 36.587283 -121.849845 205 217ft 0kts
05-Aug-18 12:31 36.587283 -121.849845 205 217ft 0kts
05-Aug-18 12:32 36.587283 -121.849845 205 217ft 0kts
05-Aug-18 12:33 36.587525 -121.849666 228 217ft 2kts
05-Aug-18 12:34 36.587569 -121.849234 293 217ft 0kts
05-Aug-18 12:35 36.587569 -121.849234 293 217ft 0kts
05-Aug-18 12:36 36.587410 -121.848886 104 217ft 9kts
05-Aug-18 12:37 36.585450 -121.843006 115 217ft 23kts
05-Aug-18 12:38 36.582633 -121.834931 93 217ft 10kts
05-Aug-18 12:39 36.582714 -121.834251 49 217ft 0kts
05-Aug-18 12:40 36.583716 -121.834654 294 217ft 3kts
05-Aug-18 12:41 36.590963 -121.856056 292 619ft 163kts
05-Aug-18 12:42 36.624193 -121.896126 342 3908ft 198kts
05-Aug-18 12:43 36.691689 -121.914179 341 6103ft 308kts
05-Aug-18 12:44 36.769169 -121.918083 30 7448ft 284kts
05-Aug-18 12:45 36.794672 -121.828388 109 10098ft 306kts
05-Aug-18 12:46 36.723905 -121.761390 157 11385ft 358kts
05-Aug-18 12:47 36.627445 -121.703339 155 12634ft 401kts
05-Aug-18 12:48 36.526433 -121.641757 156 14749ft 409kts
05-Aug-18 12:49 36.422616 -121.578714 157 16675ft 418kts
05-Aug-18 12:50 36.319853 -121.516493 158 19006ft 416kts
05-Aug-18 12:51 36.211966 -121.451271 158 20059ft 441kts
05-Aug-18 12:52 36.100504 -121.384335 158 21537ft 449kts
05-Aug-18 12:53 36.004466 -121.333615 163 22610ft 453kts
05-Aug-18 12:54 35.865877 -121.266927 163 23954ft 462kts
05-Aug-18 12:55 35.746870 -121.209493 164 25878ft 448kts
05-Aug-18 12:56 35.650650 -121.163442 164 27078ft 449kts
05-Aug-18 12:57 35.516128 -121.097883 160 29006ft 447kts
05-Aug-18 12:58 35.439445 -121.009113 130 30312ft 470kts
05-Aug-18 12:59 35.367003 -120.876910 132 31836ft 463kts
05-Aug-18 13:00 35.281370 -120.726953 131 33475ft 458kts
05-Aug-18 13:01 35.221071 -120.621110 131 34494ft 454kts
05-Aug-18 13:02 35.136371 -120.472885 132 35876ft 447kts
05-Aug-18 13:03 35.078524 -120.371974 132 37181ft 428kts
05-Aug-18 13:04 35.010632 -120.254138 132 37799ft 425kts
05-Aug-18 13:05 34.941676 -120.134800 131 37801ft 438kts
05-Aug-18 13:06 34.870247 -120.011539 131 37845ft 451kts
05-Aug-18 13:07 34.796456 -119.884645 130 37919ft 465kts
05-Aug-18 13:08 34.720483 -119.754422 130 38041ft 473kts
05-Aug-18 13:09 34.644471 -119.624609 130 38476ft 471kts
05-Aug-18 13:10 34.568413 -119.495144 130 38788ft 471kts
05-Aug-18 13:11 34.492168 -119.366020 130 38972ft 471kts
05-Aug-18 13:12 34.415923 -119.237059 130 38984ft 470kts
05-Aug-18 13:13 34.339555 -119.108650 130 38980ft 470kts
05-Aug-18 13:14 34.262996 -118.980287 130 38981ft 470kts
05-Aug-18 13:15 34.186452 -118.852267 130 38977ft 470kts
05-Aug-18 13:16 34.109483 -118.724260 130 38974ft 470kts
05-Aug-18 13:17 34.032783 -118.596902 130 38994ft 470kts
05-Aug-18 13:18 33.956030 -118.469947 129 38533ft 465kts
05-Aug-18 13:19 33.871785 -118.352262 137 37542ft 465kts
05-Aug-18 13:20 33.782955 -118.237839 136 35574ft 468kts
05-Aug-18 13:21 33.694849 -118.122168 136 32905ft 473kts
05-Aug-18 13:22 33.605008 -118.004581 136 29898ft 480kts
05-Aug-18 13:23 33.512010 -117.888420 138 26327ft 487kts
05-Aug-18 13:24 33.413540 -117.776818 140 22593ft 484kts
05-Aug-18 13:25 33.314872 -117.671465 139 19038ft 463kts
05-Aug-18 13:26 33.221268 -117.571913 139 15746ft 438kts
05-Aug-18 13:27 33.131422 -117.479018 144 12836ft 410kts
05-Aug-18 13:28 33.045841 -117.407604 146 12068ft 345kts
05-Aug-18 13:29 32.973082 -117.346488 145 11558ft 297kts
05-Aug-18 13:30 32.907471 -117.291601 145 10331ft 286kts
05-Aug-18 13:31 32.842247 -117.237404 144 8896ft 284kts
05-Aug-18 13:32 32.800455 -117.164159 101 7531ft 277kts
05-Aug-18 13:33 32.782274 -117.080294 104 6853ft 247kts
05-Aug-18 13:34 32.756327 -117.006524 116 5975ft 229kts
05-Aug-18 13:35 32.732738 -116.938746 106 5116ft 208kts
05-Aug-18 13:36 32.707871 -116.875034 155 3974ft 216kts
05-Aug-18 13:37 32.672012 -116.909598 256 4006ft 195kts
05-Aug-18 13:38 32.679660 -116.972927 284 3982ft 194kts
05-Aug-18 13:39 32.691503 -117.029551 281 2934ft 173kts
05-Aug-18 13:40 32.704279 -117.081354 296 1777ft 156kts
05-Aug-18 13:41 32.718456 -117.126220 286 783ft 131kts
05-Aug-18 13:42 32.728307 -117.167034 289 310ft 126kts
05-Aug-18 13:43 32.735571 -117.197962 273 29ft 38kts
05-Aug-18 13:44 32.733449 -117.199345 120 29ft 6kts

Navigation Log

Ident Type
Flight plan parsing failed, navigation log unavailable